createdAt,value
2023-04-22T00:00:18.219Z,1.80
2023-04-22T00:01:18.202Z,2.10
2023-04-22T00:02:18.252Z,1.70
2023-04-22T00:03:18.379Z,1.60
2023-04-22T00:04:18.490Z,1.60
2023-04-22T00:05:20.246Z,2.60
2023-04-22T00:06:18.139Z,2.30
2023-04-22T00:07:18.122Z,1.80
2023-04-22T00:08:18.137Z,1.60
2023-04-22T00:09:18.120Z,1.90
2023-04-22T00:10:18.095Z,1.80
2023-04-22T00:11:18.101Z,2.20
2023-04-22T00:12:18.072Z,2.00
2023-04-22T00:13:18.097Z,2.10
2023-04-22T00:14:18.064Z,2.70
2023-04-22T00:15:18.037Z,2.30
2023-04-22T00:16:18.078Z,2.00
2023-04-22T00:17:18.102Z,2.20
2023-04-22T00:18:18.019Z,2.00
2023-04-22T00:19:18.007Z,2.40
2023-04-22T00:20:17.996Z,2.30
2023-04-22T00:21:17.976Z,1.60
2023-04-22T00:22:17.981Z,1.70
2023-04-22T00:23:17.967Z,1.90
2023-04-22T00:24:17.945Z,1.80
2023-04-22T00:25:17.963Z,2.30
2023-04-22T00:26:17.925Z,2.00
2023-04-22T00:27:17.946Z,1.60
2023-04-22T00:28:17.896Z,1.60
2023-04-22T00:29:17.888Z,2.30
2023-04-22T00:30:17.876Z,1.70
2023-04-22T00:31:17.937Z,2.40
2023-04-22T00:32:17.864Z,1.50
2023-04-22T00:33:17.852Z,1.90
2023-04-22T00:34:18.000Z,1.70
2023-04-22T00:35:17.832Z,1.80
2023-04-22T00:36:17.823Z,1.80
2023-04-22T00:37:17.795Z,1.60
2023-04-22T00:38:17.778Z,1.40
2023-04-22T00:39:17.779Z,1.80
2023-04-22T00:40:17.766Z,2.00
2023-04-22T00:41:17.764Z,2.30
2023-04-22T00:42:17.757Z,2.40
2023-04-22T00:43:17.745Z,2.20
2023-04-22T00:44:17.726Z,2.10
2023-04-22T00:45:17.718Z,2.10
2023-04-22T00:46:17.737Z,2.20
2023-04-22T00:47:17.830Z,2.30
2023-04-22T00:48:17.697Z,2.10
2023-04-22T00:49:17.663Z,2.20
2023-04-22T00:50:17.654Z,2.10
2023-04-22T00:51:17.651Z,2.20
2023-04-22T00:52:17.625Z,2.30
2023-04-22T00:53:17.610Z,1.90
2023-04-22T00:54:17.616Z,2.40
2023-04-22T00:55:17.591Z,2.10
2023-04-22T00:56:17.573Z,2.30
2023-04-22T00:57:17.596Z,2.30
2023-04-22T00:58:17.594Z,2.30
2023-04-22T00:59:17.560Z,2.20
2023-04-22T01:00:17.542Z,2.20
2023-04-22T01:01:17.676Z,2.60
2023-04-22T01:02:17.567Z,3.10
2023-04-22T01:03:17.631Z,2.50
2023-04-22T01:04:17.633Z,2.40
2023-04-22T01:05:17.490Z,2.30
2023-04-22T01:06:17.489Z,2.30
2023-04-22T01:07:17.477Z,2.20
2023-04-22T01:08:17.462Z,2.10
2023-04-22T01:09:17.433Z,2.30
2023-04-22T01:10:17.444Z,2.30
2023-04-22T01:11:17.430Z,1.80
2023-04-22T01:12:17.487Z,2.30
2023-04-22T01:13:17.388Z,2.00
2023-04-22T01:14:17.387Z,2.40
2023-04-22T01:15:17.374Z,2.10
2023-04-22T01:16:17.403Z,2.10
2023-04-22T01:17:17.364Z,1.90
2023-04-22T01:18:17.352Z,2.10
2023-04-22T01:19:17.332Z,2.50
2023-04-22T01:20:17.348Z,2.60
2023-04-22T01:21:17.326Z,1.90
2023-04-22T01:22:17.299Z,1.90
2023-04-22T01:23:17.303Z,2.10
2023-04-22T01:24:17.300Z,2.10
2023-04-22T01:25:17.290Z,2.20
2023-04-22T01:26:17.255Z,2.30
2023-04-22T01:27:17.257Z,2.50
2023-04-22T01:28:17.229Z,2.60
2023-04-22T01:29:17.249Z,2.30
2023-04-22T01:30:17.260Z,2.20
2023-04-22T01:31:17.208Z,2.20
2023-04-22T01:32:17.299Z,2.40
2023-04-22T01:33:17.326Z,1.90
2023-04-22T01:34:17.178Z,2.50
2023-04-22T01:35:17.160Z,2.20
2023-04-22T01:36:17.179Z,2.30
2023-04-22T01:37:17.140Z,2.30
2023-04-22T01:38:17.118Z,2.20
2023-04-22T01:39:17.110Z,2.50
2023-04-22T01:40:17.095Z,2.20
2023-04-22T01:41:17.111Z,2.20
2023-04-22T01:42:17.093Z,2.00
2023-04-22T01:43:17.076Z,2.00
2023-04-22T01:44:17.059Z,2.20
2023-04-22T01:45:17.042Z,2.20
2023-04-22T01:46:17.082Z,1.90
2023-04-22T01:47:17.026Z,2.00
2023-04-22T01:48:17.096Z,2.40
2023-04-22T01:49:17.007Z,2.20
2023-04-22T01:50:16.979Z,2.40
2023-04-22T01:51:16.983Z,2.10
2023-04-22T01:52:16.992Z,2.10
2023-04-22T01:53:16.980Z,2.00
2023-04-22T01:54:16.936Z,2.50
2023-04-22T01:55:16.940Z,1.80
2023-04-22T01:56:16.925Z,2.10
2023-04-22T01:57:16.913Z,2.20
2023-04-22T01:58:16.906Z,2.00
2023-04-22T01:59:16.905Z,2.10
2023-04-22T02:00:16.866Z,2.00
2023-04-22T02:01:16.875Z,2.00
2023-04-22T02:02:16.933Z,1.90
2023-04-22T02:03:16.937Z,2.00
2023-04-22T02:04:16.840Z,1.90
2023-04-22T02:05:16.826Z,2.10
2023-04-22T02:06:16.828Z,2.00
2023-04-22T02:07:16.799Z,1.90
2023-04-22T02:08:16.822Z,1.90
2023-04-22T02:09:16.773Z,1.50
2023-04-22T02:10:16.787Z,2.10
2023-04-22T02:11:16.764Z,2.00
2023-04-22T02:12:16.769Z,1.60
2023-04-22T02:13:16.724Z,1.50
2023-04-22T02:14:16.717Z,1.80
2023-04-22T02:15:16.727Z,2.20
2023-04-22T02:16:16.762Z,1.50
2023-04-22T02:17:16.692Z,1.80
2023-04-22T02:18:16.700Z,1.60
2023-04-22T02:19:16.656Z,2.10
2023-04-22T02:20:16.721Z,1.60
2023-04-22T02:21:16.651Z,1.50
2023-04-22T02:22:16.630Z,1.50
2023-04-22T02:23:16.611Z,1.70
2023-04-22T02:24:16.631Z,1.60
2023-04-22T02:25:16.611Z,1.50
2023-04-22T02:26:16.586Z,2.10
2023-04-22T02:27:16.567Z,2.00
2023-04-22T02:28:16.571Z,1.70
2023-04-22T02:29:16.544Z,1.90
2023-04-22T02:30:16.547Z,1.80
2023-04-22T02:31:16.556Z,1.90
2023-04-22T02:32:16.518Z,1.80
2023-04-22T02:33:16.515Z,2.10
2023-04-22T02:34:16.514Z,1.80
2023-04-22T02:35:16.491Z,1.70
2023-04-22T02:36:16.472Z,1.80
2023-04-22T02:37:16.460Z,1.80
2023-04-22T02:38:16.470Z,1.50
2023-04-22T02:39:16.451Z,2.10
2023-04-22T02:40:16.457Z,2.00
2023-04-22T02:41:16.431Z,1.60
2023-04-22T02:42:16.425Z,1.60
2023-04-22T02:43:16.407Z,1.60
2023-04-22T02:44:16.396Z,1.90
2023-04-22T02:45:16.387Z,1.80
2023-04-22T02:46:16.471Z,1.80
2023-04-22T02:47:16.351Z,1.60
2023-04-22T02:48:16.343Z,1.80
2023-04-22T02:49:16.353Z,1.50
2023-04-22T02:50:16.324Z,1.40
2023-04-22T02:51:16.313Z,1.80
2023-04-22T02:52:16.301Z,1.80
2023-04-22T02:53:16.281Z,1.60
2023-04-22T02:54:16.274Z,1.80
2023-04-22T02:55:16.262Z,2.00
2023-04-22T02:56:16.275Z,1.80
2023-04-22T02:57:16.246Z,1.90
2023-04-22T02:58:16.244Z,1.90
2023-04-22T02:59:16.217Z,1.90
2023-04-22T03:00:16.232Z,2.30
2023-04-22T03:01:16.338Z,2.40
2023-04-22T03:02:16.187Z,2.40
2023-04-22T03:03:16.287Z,2.40
2023-04-22T03:04:16.341Z,2.40
2023-04-22T03:05:16.167Z,2.80
2023-04-22T03:06:16.156Z,2.20
2023-04-22T03:07:16.137Z,2.60
2023-04-22T03:08:16.129Z,2.70
2023-04-22T03:09:16.112Z,2.50
2023-04-22T03:10:16.113Z,2.50
2023-04-22T03:11:16.092Z,2.50
2023-04-22T03:12:16.099Z,2.40
2023-04-22T03:13:16.069Z,2.60
2023-04-22T03:14:16.064Z,2.40
2023-04-22T03:15:18.060Z,2.40
2023-04-22T03:16:16.056Z,2.30
2023-04-22T03:17:16.022Z,2.20
2023-04-22T03:18:16.023Z,2.70
2023-04-22T03:19:16.001Z,2.30
2023-04-22T03:20:15.990Z,2.20
2023-04-22T03:21:15.981Z,2.50
2023-04-22T03:22:15.963Z,2.70
2023-04-22T03:23:15.949Z,2.40
2023-04-22T03:24:15.957Z,2.30
2023-04-22T03:25:15.954Z,2.30
2023-04-22T03:26:15.930Z,2.60
2023-04-22T03:27:15.939Z,2.10
2023-04-22T03:28:15.932Z,2.10
2023-04-22T03:29:15.888Z,2.20
2023-04-22T03:30:15.878Z,1.90
2023-04-22T03:31:15.879Z,1.90
2023-04-22T03:32:15.995Z,2.00
2023-04-22T03:33:15.892Z,1.70
2023-04-22T03:34:15.840Z,2.10
2023-04-22T03:35:15.823Z,2.00
2023-04-22T03:36:15.838Z,1.90
2023-04-22T03:37:15.817Z,1.90
2023-04-22T03:38:15.793Z,2.10
2023-04-22T03:39:15.794Z,1.80
2023-04-22T03:40:15.776Z,2.30
2023-04-22T03:41:15.761Z,1.80
2023-04-22T03:42:15.751Z,1.80
2023-04-22T03:43:15.734Z,1.40
2023-04-22T03:44:15.768Z,1.60
2023-04-22T03:45:15.721Z,1.90
2023-04-22T03:46:15.727Z,1.80
2023-04-22T03:47:15.689Z,1.70
2023-04-22T03:48:15.681Z,1.40
2023-04-22T03:49:15.674Z,1.50
2023-04-22T03:50:15.667Z,1.60
2023-04-22T03:51:15.644Z,1.70
2023-04-22T03:52:15.653Z,1.70
2023-04-22T03:53:15.628Z,1.60
2023-04-22T03:54:15.614Z,1.80
2023-04-22T03:55:15.601Z,1.60
2023-04-22T03:56:15.611Z,1.80
2023-04-22T03:57:15.588Z,1.60
2023-04-22T03:58:15.582Z,1.20
2023-04-22T03:59:15.555Z,1.50
2023-04-22T04:00:15.601Z,1.50
2023-04-22T04:01:15.532Z,1.50
2023-04-22T04:02:15.655Z,1.90
2023-04-22T04:03:15.835Z,2.10
2023-04-22T04:04:15.688Z,1.50
2023-04-22T04:05:15.627Z,1.80
2023-04-22T04:06:15.495Z,1.70
2023-04-22T04:07:15.470Z,1.90
2023-04-22T04:08:15.471Z,2.00
2023-04-22T04:09:15.455Z,1.90
2023-04-22T04:10:15.422Z,1.40
2023-04-22T04:11:15.437Z,2.10
2023-04-22T04:12:15.431Z,1.60
2023-04-22T04:13:15.418Z,1.90
2023-04-22T04:14:15.378Z,1.80
2023-04-22T04:15:15.401Z,1.80
2023-04-22T04:16:15.491Z,1.90
2023-04-22T04:17:15.369Z,1.50
2023-04-22T04:18:15.351Z,1.40
2023-04-22T04:19:15.341Z,1.70
2023-04-22T04:20:15.324Z,1.90
2023-04-22T04:21:15.300Z,1.30
2023-04-22T04:22:15.301Z,1.60
2023-04-22T04:23:15.298Z,2.00
2023-04-22T04:24:15.273Z,1.70
2023-04-22T04:25:15.258Z,1.40
2023-04-22T04:26:15.318Z,1.70
2023-04-22T04:27:15.235Z,1.70
2023-04-22T04:28:15.238Z,1.70
2023-04-22T04:29:15.225Z,1.50
2023-04-22T04:30:15.206Z,1.60
2023-04-22T04:31:15.226Z,1.40
2023-04-22T04:32:15.210Z,1.70
2023-04-22T04:33:15.178Z,1.60
2023-04-22T04:34:15.157Z,1.50
2023-04-22T04:35:15.147Z,1.60
2023-04-22T04:36:15.152Z,1.40
2023-04-22T04:37:15.135Z,1.70
2023-04-22T04:38:15.109Z,1.40
2023-04-22T04:39:15.115Z,1.50
2023-04-22T04:40:15.110Z,1.80
2023-04-22T04:41:15.078Z,1.70
2023-04-22T04:42:15.082Z,2.00
2023-04-22T04:43:15.090Z,1.70
2023-04-22T04:44:15.044Z,1.70
2023-04-22T04:45:15.052Z,1.50
2023-04-22T04:46:15.051Z,1.90
2023-04-22T04:47:15.011Z,1.60
2023-04-22T04:48:15.020Z,1.40
2023-04-22T04:49:14.998Z,1.80
2023-04-22T04:50:14.998Z,1.70
2023-04-22T04:51:14.990Z,1.60
2023-04-22T04:52:14.955Z,1.30
2023-04-22T04:53:14.944Z,1.70
2023-04-22T04:54:14.938Z,1.80
2023-04-22T04:55:14.933Z,1.60
2023-04-22T04:56:14.922Z,2.20
2023-04-22T04:57:14.910Z,1.90
2023-04-22T04:58:14.902Z,1.50
2023-04-22T04:59:14.903Z,1.70
2023-04-22T05:00:14.881Z,1.80
2023-04-22T05:01:14.911Z,1.90
2023-04-22T05:02:14.984Z,1.80
2023-04-22T05:03:15.055Z,1.60
2023-04-22T05:04:14.984Z,1.80
2023-04-22T05:05:14.861Z,1.60
2023-04-22T05:06:14.818Z,1.90
2023-04-22T05:07:14.811Z,1.50
2023-04-22T05:08:14.814Z,2.00
2023-04-22T05:09:14.826Z,2.00
2023-04-22T05:10:14.797Z,1.90
2023-04-22T05:11:14.778Z,2.00
2023-04-22T05:12:14.747Z,2.00
2023-04-22T05:13:14.750Z,2.00
2023-04-22T05:14:14.733Z,2.00
2023-04-22T05:15:14.744Z,2.10
2023-04-22T05:16:14.768Z,2.30
2023-04-22T05:17:14.733Z,2.10
2023-04-22T05:18:14.696Z,2.30
2023-04-22T05:19:23.456Z,2.20
2023-04-22T05:20:14.704Z,1.70
2023-04-22T05:21:14.652Z,1.70
2023-04-22T05:22:14.671Z,1.90
2023-04-22T05:23:14.644Z,2.10
2023-04-22T05:24:14.629Z,1.60
2023-04-22T05:25:14.639Z,1.80
2023-04-22T05:26:14.607Z,1.90
2023-04-22T05:27:14.622Z,2.00
2023-04-22T05:28:14.586Z,2.10
2023-04-22T05:29:14.567Z,2.60
2023-04-22T05:30:14.583Z,2.10
2023-04-22T05:31:14.553Z,2.10
2023-04-22T05:32:14.577Z,2.30
2023-04-22T05:33:14.554Z,2.10
2023-04-22T05:34:14.495Z,2.20
2023-04-22T05:35:14.540Z,1.90
2023-04-22T05:36:14.539Z,1.80
2023-04-22T05:37:14.480Z,1.90
2023-04-22T05:38:14.478Z,1.90
2023-04-22T05:39:14.472Z,1.80
2023-04-22T05:40:14.458Z,2.00
2023-04-22T05:41:14.471Z,1.90
2023-04-22T05:42:14.485Z,1.80
2023-04-22T05:43:14.459Z,2.00
2023-04-22T05:44:14.382Z,1.90
2023-04-22T05:45:14.385Z,1.90
2023-04-22T05:46:14.462Z,2.10
2023-04-22T05:47:14.376Z,2.30
2023-04-22T05:48:14.356Z,1.80
2023-04-22T05:49:14.327Z,1.80
2023-04-22T05:50:14.323Z,1.80
2023-04-22T05:51:14.343Z,1.70
2023-04-22T05:52:14.311Z,1.60
2023-04-22T05:53:14.331Z,1.80
2023-04-22T05:54:14.300Z,2.00
2023-04-22T05:55:14.282Z,1.60
2023-04-22T05:56:14.247Z,1.70
2023-04-22T05:57:14.254Z,1.80
2023-04-22T05:58:14.232Z,1.60
2023-04-22T05:59:14.236Z,1.60
2023-04-22T06:00:14.202Z,1.60
2023-04-22T06:01:14.248Z,1.40
2023-04-22T06:02:14.279Z,1.20
2023-04-22T06:03:14.461Z,1.40
2023-04-22T06:04:14.520Z,1.30
2023-04-22T06:05:14.223Z,1.50
2023-04-22T06:06:14.166Z,1.60
2023-04-22T06:07:14.153Z,1.60
2023-04-22T06:08:14.114Z,1.10
2023-04-22T06:09:14.118Z,1.40
2023-04-22T06:10:14.096Z,1.40
2023-04-22T06:11:14.107Z,1.40
2023-04-22T06:12:14.091Z,1.30
2023-04-22T06:13:14.097Z,1.30
2023-04-22T06:14:14.069Z,1.10
2023-04-22T06:15:14.081Z,1.40
2023-04-22T06:16:14.043Z,1.50
2023-04-22T06:17:14.073Z,1.30
2023-04-22T06:18:14.024Z,1.40
2023-04-22T06:19:14.007Z,1.60
2023-04-22T06:20:14.022Z,1.10
2023-04-22T06:21:13.989Z,1.70
2023-04-22T06:22:14.004Z,1.40
2023-04-22T06:23:13.978Z,1.50
2023-04-22T06:24:13.937Z,1.40
2023-04-22T06:25:13.954Z,1.50
2023-04-22T06:26:13.914Z,1.30
2023-04-22T06:27:13.904Z,1.30
2023-04-22T06:28:13.938Z,1.20
2023-04-22T06:29:13.921Z,1.30
2023-04-22T06:30:13.902Z,1.80
2023-04-22T06:31:13.900Z,1.70
2023-04-22T06:32:13.864Z,1.70
2023-04-22T06:33:13.916Z,1.50
2023-04-22T06:34:13.866Z,1.50
2023-04-22T06:35:13.856Z,1.50
2023-04-22T06:36:13.807Z,1.80
2023-04-22T06:37:13.832Z,1.60
2023-04-22T06:38:13.787Z,1.60
2023-04-22T06:39:13.790Z,1.30
2023-04-22T06:40:13.778Z,1.30
2023-04-22T06:41:13.743Z,1.50
2023-04-22T06:42:13.768Z,1.60
2023-04-22T06:43:13.758Z,1.40
2023-04-22T06:44:13.731Z,1.60
2023-04-22T06:45:13.716Z,1.40
2023-04-22T06:46:13.766Z,1.50
2023-04-22T06:47:13.716Z,1.40
2023-04-22T06:48:13.668Z,1.20
2023-04-22T06:49:13.677Z,1.60
2023-04-22T06:50:13.657Z,1.60
2023-04-22T06:51:13.667Z,1.30
2023-04-22T06:52:13.633Z,1.40
2023-04-22T06:53:13.635Z,1.50
2023-04-22T06:54:13.586Z,1.20
2023-04-22T06:55:13.635Z,1.30
2023-04-22T06:56:13.614Z,1.20
2023-04-22T06:57:13.580Z,1.30
2023-04-22T06:58:13.569Z,1.00
2023-04-22T06:59:13.560Z,1.50
2023-04-22T07:00:13.543Z,1.20
2023-04-22T07:01:13.553Z,1.50
2023-04-22T07:02:13.657Z,1.30
2023-04-22T07:03:13.581Z,1.40
2023-04-22T07:04:13.520Z,1.20
2023-04-22T07:05:13.477Z,1.30
2023-04-22T07:06:13.476Z,1.40
2023-04-22T07:07:13.462Z,1.40
2023-04-22T07:08:13.444Z,1.20
2023-04-22T07:09:13.446Z,1.30
2023-04-22T07:10:13.456Z,1.50
2023-04-22T07:11:14.464Z,1.70
2023-04-22T07:12:13.408Z,1.40
2023-04-22T07:13:13.377Z,1.20
2023-04-22T07:14:13.365Z,1.50
2023-04-22T07:15:13.406Z,1.30
2023-04-22T07:16:13.468Z,1.50
2023-04-22T07:17:13.343Z,1.30
2023-04-22T07:18:13.352Z,1.30
2023-04-22T07:19:13.393Z,1.20
2023-04-22T07:20:13.355Z,1.60
2023-04-22T07:21:13.297Z,1.10
2023-04-22T07:22:13.286Z,1.40
2023-04-22T07:23:13.293Z,1.30
2023-04-22T07:24:13.256Z,1.20
2023-04-22T07:25:13.253Z,1.50
2023-04-22T07:26:13.227Z,1.30
2023-04-22T07:27:13.277Z,1.50
2023-04-22T07:28:13.237Z,1.40
2023-04-22T07:29:13.198Z,1.40
2023-04-22T07:30:13.212Z,1.60
2023-04-22T07:31:13.197Z,1.10
2023-04-22T07:32:13.175Z,1.60
2023-04-22T07:33:13.162Z,1.30
2023-04-22T07:34:13.132Z,1.40
2023-04-22T07:35:13.136Z,1.20
2023-04-22T07:36:13.121Z,1.10
2023-04-22T07:37:13.106Z,1.50
2023-04-22T07:38:14.599Z,1.20
2023-04-22T07:39:13.090Z,1.20
2023-04-22T07:40:13.467Z,1.40
2023-04-22T07:41:13.075Z,1.30
2023-04-22T07:42:13.096Z,1.20
2023-04-22T07:43:13.076Z,1.40
2023-04-22T07:44:13.050Z,1.20
2023-04-22T07:45:13.044Z,1.00
2023-04-22T07:46:13.045Z,1.40
2023-04-22T07:47:12.987Z,1.10
2023-04-22T07:48:12.984Z,1.80
2023-04-22T07:49:12.966Z,1.30
2023-04-22T07:50:12.974Z,1.30
2023-04-22T07:51:13.027Z,1.30
2023-04-22T07:52:12.983Z,1.70
2023-04-22T07:53:12.938Z,1.40
2023-04-22T07:54:12.936Z,1.00
2023-04-22T07:55:12.910Z,1.20
2023-04-22T07:56:12.880Z,1.20
2023-04-22T07:57:12.894Z,1.40
2023-04-22T07:58:12.869Z,1.50
2023-04-22T07:59:12.962Z,1.10
2023-04-22T08:00:12.856Z,1.30
2023-04-22T08:01:12.958Z,1.30
2023-04-22T08:02:12.924Z,1.50
2023-04-22T08:03:12.956Z,1.30
2023-04-22T08:04:13.025Z,1.20
2023-04-22T08:05:12.830Z,1.10
2023-04-22T08:06:12.846Z,1.60
2023-04-22T08:07:31.066Z,1.60
2023-04-22T08:08:13.774Z,1.50
2023-04-22T08:09:12.756Z,1.50
2023-04-22T08:10:12.742Z,1.40
2023-04-22T08:11:12.708Z,1.20
2023-04-22T08:12:12.720Z,1.50
2023-04-22T08:13:12.725Z,1.30
2023-04-22T08:14:12.708Z,1.20
2023-04-22T08:15:12.705Z,1.20
2023-04-22T08:16:12.711Z,1.30
2023-04-22T08:17:12.680Z,1.20
2023-04-22T08:18:12.667Z,1.00
2023-04-22T08:19:12.630Z,1.30
2023-04-22T08:20:12.627Z,1.20
2023-04-22T08:21:12.603Z,1.20
2023-04-22T08:22:12.712Z,1.20
2023-04-22T08:23:12.611Z,1.20
2023-04-22T08:24:12.576Z,1.30
2023-04-22T08:25:12.558Z,1.00
2023-04-22T08:26:12.610Z,1.00
2023-04-22T08:27:12.556Z,1.10
2023-04-22T08:28:12.537Z,1.30
2023-04-22T08:29:12.527Z,0.90
2023-04-22T08:30:12.541Z,1.20
2023-04-22T08:31:12.637Z,1.40
2023-04-22T08:32:12.512Z,1.50
2023-04-22T08:33:12.501Z,1.10
2023-04-22T08:34:12.475Z,1.40
2023-04-22T08:35:12.496Z,1.10
2023-04-22T08:36:12.451Z,1.20
2023-04-22T08:37:12.467Z,1.10
2023-04-22T08:38:12.406Z,1.20
2023-04-22T08:39:12.412Z,0.90
2023-04-22T08:40:12.428Z,1.10
2023-04-22T08:41:12.423Z,1.00
2023-04-22T08:42:12.399Z,1.10
2023-04-22T08:43:12.374Z,1.30
2023-04-22T08:44:12.346Z,1.20
2023-04-22T08:45:12.376Z,1.30
2023-04-22T08:46:12.388Z,1.30
2023-04-22T08:47:12.382Z,1.00
2023-04-22T08:48:12.320Z,1.20
2023-04-22T08:49:12.296Z,1.30
2023-04-22T08:50:12.339Z,1.00
2023-04-22T08:51:12.421Z,1.30
2023-04-22T08:52:12.298Z,1.00
2023-04-22T08:53:12.271Z,1.30
2023-04-22T08:54:12.230Z,1.40
2023-04-22T08:55:12.285Z,1.00
2023-04-22T08:56:12.235Z,1.20
2023-04-22T08:57:12.231Z,1.70
2023-04-22T08:58:12.217Z,1.20
2023-04-22T08:59:12.169Z,1.20
2023-04-22T09:00:12.237Z,1.30
2023-04-22T09:01:12.213Z,1.10
2023-04-22T09:02:12.221Z,1.00
2023-04-22T09:03:12.559Z,1.20
2023-04-22T09:04:12.233Z,1.50
2023-04-22T09:05:12.124Z,1.20
2023-04-22T09:06:12.117Z,1.30
2023-04-22T09:07:12.113Z,1.00
2023-04-22T09:08:12.091Z,1.00
2023-04-22T09:09:12.113Z,1.00
2023-04-22T09:10:12.056Z,1.30
2023-04-22T09:11:12.094Z,1.10
2023-04-22T09:12:12.052Z,1.10
2023-04-22T09:13:12.022Z,0.90
2023-04-22T09:16:30.573Z,0.90
2023-04-22T09:17:30.536Z,1.10
2023-04-22T09:18:30.550Z,1.50
2023-04-22T09:19:30.483Z,1.20
2023-04-22T09:20:30.513Z,1.10
2023-04-22T09:21:30.462Z,1.10
2023-04-22T09:22:30.481Z,0.90
2023-04-22T09:23:30.476Z,1.30
2023-04-22T09:24:30.460Z,1.00
2023-04-22T09:25:30.438Z,1.00
2023-04-22T09:26:30.404Z,1.20
2023-04-22T09:27:30.412Z,1.50
2023-04-22T09:28:30.422Z,1.20
2023-04-22T09:29:30.410Z,1.10
2023-04-22T09:30:30.379Z,1.10
2023-04-22T09:31:30.508Z,1.20
2023-04-22T09:32:30.435Z,1.10
2023-04-22T09:33:30.426Z,1.20
2023-04-22T09:34:30.381Z,1.70
2023-04-22T09:35:30.347Z,1.10
2023-04-22T09:36:30.346Z,1.50
2023-04-22T09:37:42.539Z,1.10
2023-04-22T09:38:31.341Z,1.20
2023-04-22T09:39:30.263Z,1.20
2023-04-22T09:40:30.264Z,1.30
2023-04-22T09:41:30.275Z,1.00
2023-04-22T09:42:30.235Z,1.10
2023-04-22T09:43:30.258Z,1.20
2023-04-22T09:44:30.236Z,0.90
2023-04-22T09:45:30.221Z,1.20
2023-04-22T09:46:30.245Z,1.00
2023-04-22T09:47:30.234Z,1.10
2023-04-22T09:48:30.188Z,1.00
2023-04-22T09:49:30.235Z,0.90
2023-04-22T09:50:30.205Z,1.40
2023-04-22T09:51:30.153Z,1.20
2023-04-22T09:52:30.164Z,1.10
2023-04-22T09:53:30.136Z,1.30
2023-04-22T09:54:30.120Z,1.10
2023-04-22T09:55:30.114Z,1.20
2023-04-22T09:56:30.100Z,1.30
2023-04-22T09:57:30.100Z,1.20
2023-04-22T09:58:30.073Z,1.20
2023-04-22T09:59:30.060Z,0.90
2023-04-22T10:00:30.058Z,1.20
2023-04-22T10:01:30.087Z,1.50
2023-04-22T10:02:30.127Z,1.20
2023-04-22T10:03:30.041Z,1.20
2023-04-22T10:04:30.127Z,1.00
2023-04-22T10:05:30.037Z,1.40
2023-04-22T10:06:30.037Z,1.40
2023-04-22T10:07:29.999Z,1.10
2023-04-22T10:08:29.955Z,1.30
2023-04-22T10:09:29.982Z,1.20
2023-04-22T10:10:29.940Z,1.00
2023-04-22T10:11:29.931Z,1.30
2023-04-22T10:12:35.819Z,1.30
2023-04-22T10:13:30.914Z,1.20
2023-04-22T10:14:29.873Z,1.10
2023-04-22T10:15:29.895Z,1.30
2023-04-22T10:16:29.916Z,1.30
2023-04-22T10:17:29.867Z,1.30
2023-04-22T10:18:29.839Z,1.20
2023-04-22T10:19:29.860Z,1.30
2023-04-22T10:20:29.819Z,1.40
2023-04-22T10:21:29.841Z,1.10
2023-04-22T10:22:29.816Z,1.40
2023-04-22T10:23:29.777Z,1.30
2023-04-22T10:24:29.789Z,1.20
2023-04-22T10:25:29.748Z,1.00
2023-04-22T10:26:29.768Z,1.50
2023-04-22T10:27:29.744Z,1.20
2023-04-22T10:28:29.736Z,1.20
2023-04-22T10:29:29.715Z,0.90
2023-04-22T10:30:29.737Z,1.10
2023-04-22T10:31:29.717Z,1.10
2023-04-22T10:32:29.728Z,1.10
2023-04-22T10:33:29.691Z,1.10
2023-04-22T10:34:29.672Z,1.00
2023-04-22T10:35:29.856Z,1.10
2023-04-22T10:36:29.649Z,1.00
2023-04-22T10:37:30.484Z,1.30
2023-04-22T10:38:29.632Z,1.10
2023-04-22T10:39:29.620Z,1.00
2023-04-22T10:40:29.591Z,0.90
2023-04-22T10:41:29.568Z,1.10
2023-04-22T10:42:29.566Z,1.20
2023-04-22T10:43:29.928Z,1.40
2023-04-22T10:44:29.549Z,1.00
2023-04-22T10:45:29.526Z,1.10
2023-04-22T10:46:29.570Z,1.20
2023-04-22T10:47:29.544Z,1.10
2023-04-22T10:48:29.513Z,1.00
2023-04-22T10:49:29.509Z,1.00
2023-04-22T10:50:29.706Z,1.50
2023-04-22T10:51:29.463Z,1.30
2023-04-22T10:52:29.476Z,1.10
2023-04-22T10:53:29.455Z,1.10
2023-04-22T10:54:31.756Z,1.10
2023-04-22T10:55:29.419Z,1.20
2023-04-22T10:56:29.422Z,1.10
2023-04-22T10:57:29.398Z,1.20
2023-04-22T10:58:29.387Z,1.20
2023-04-22T10:59:29.381Z,1.10
2023-04-22T11:00:35.228Z,0.90
2023-04-22T11:01:30.399Z,1.00
2023-04-22T11:02:29.494Z,1.20
2023-04-22T11:03:30.150Z,1.20
2023-04-22T11:04:29.362Z,1.10
2023-04-22T11:05:29.316Z,1.20
2023-04-22T11:06:29.341Z,1.30
2023-04-22T11:07:29.314Z,1.10
2023-04-22T11:08:29.274Z,1.00
2023-04-22T11:09:29.264Z,1.00
2023-04-22T11:10:29.264Z,1.20
2023-04-22T11:11:29.236Z,1.10
2023-04-22T11:12:29.245Z,1.10
2023-04-22T11:13:29.236Z,0.90
2023-04-22T11:14:29.210Z,1.10
2023-04-22T11:15:29.214Z,1.00
2023-04-22T11:16:29.313Z,0.90
2023-04-22T11:17:29.219Z,1.20
2023-04-22T11:18:29.262Z,0.80
2023-04-22T11:19:29.177Z,1.10
2023-04-22T11:20:29.142Z,1.30
2023-04-22T11:21:29.151Z,1.30
2023-04-22T11:22:29.131Z,1.20
2023-04-22T11:23:29.122Z,1.20
2023-04-22T11:24:29.120Z,1.30
2023-04-22T11:25:29.128Z,1.40
2023-04-22T11:26:29.385Z,1.10
2023-04-22T11:27:29.062Z,1.40
2023-04-22T11:28:29.059Z,1.40
2023-04-22T11:29:29.054Z,1.30
2023-04-22T11:30:29.087Z,1.00
2023-04-22T11:31:29.205Z,1.30
2023-04-22T11:32:29.035Z,0.80
2023-04-22T11:33:29.016Z,0.90
2023-04-22T11:34:29.057Z,1.00
2023-04-22T11:35:29.085Z,1.00
2023-04-22T11:36:28.987Z,1.00
2023-04-22T11:37:28.961Z,1.00
2023-04-22T11:38:28.959Z,1.10
2023-04-22T11:39:28.947Z,0.80
2023-04-22T11:40:31.217Z,1.40
2023-04-22T11:41:28.957Z,1.30
2023-04-22T11:42:28.930Z,1.10
2023-04-22T11:43:28.912Z,1.10
2023-04-22T11:44:28.886Z,1.40
2023-04-22T11:45:28.942Z,1.20
2023-04-22T11:46:29.132Z,1.00
2023-04-22T11:47:29.271Z,1.20
2023-04-22T11:48:28.854Z,1.40
2023-04-22T11:49:28.851Z,1.10
2023-04-22T11:50:28.827Z,1.10
2023-04-22T11:51:28.839Z,1.50
2023-04-22T11:52:28.797Z,1.00
2023-04-22T11:53:28.801Z,1.00
2023-04-22T11:54:28.765Z,1.10
2023-04-22T11:55:28.772Z,1.40
2023-04-22T11:56:28.753Z,0.90
2023-04-22T11:57:28.748Z,1.40
2023-04-22T11:58:28.795Z,1.40
2023-04-22T11:59:28.726Z,1.10
2023-04-22T12:00:28.719Z,1.10
2023-04-22T12:01:28.708Z,1.00
2023-04-22T12:02:28.792Z,1.10
2023-04-22T12:03:28.986Z,1.30
2023-04-22T12:04:28.668Z,1.20
2023-04-22T12:05:28.679Z,1.10
2023-04-22T12:06:28.630Z,1.40
2023-04-22T12:07:28.660Z,1.20
2023-04-22T12:08:28.628Z,1.50
2023-04-22T12:09:28.608Z,1.20
2023-04-22T12:10:28.604Z,1.10
2023-04-22T12:11:28.602Z,1.30
2023-04-22T12:12:28.616Z,1.00
2023-04-22T12:13:28.578Z,1.20
2023-04-22T12:14:28.602Z,1.50
2023-04-22T12:15:28.546Z,1.30
2023-04-22T12:16:28.557Z,1.30
2023-04-22T12:17:28.517Z,1.50
2023-04-22T12:18:28.528Z,1.60
2023-04-22T12:19:28.493Z,1.30
2023-04-22T12:20:28.504Z,1.50
2023-04-22T12:21:28.629Z,1.40
2023-04-22T12:22:29.232Z,1.10
2023-04-22T12:23:28.482Z,1.30
2023-04-22T12:24:28.457Z,1.40
2023-04-22T12:25:28.445Z,1.20
2023-04-22T12:26:28.410Z,1.00
2023-04-22T12:27:28.423Z,1.30
2023-04-22T12:28:28.424Z,1.30
2023-04-22T12:29:28.383Z,1.10
2023-04-22T12:30:28.409Z,1.60
2023-04-22T12:31:28.590Z,1.00
2023-04-22T12:32:28.369Z,1.40
2023-04-22T12:33:28.391Z,1.40
2023-04-22T12:34:28.350Z,1.20
2023-04-22T12:35:28.329Z,1.30
2023-04-22T12:36:28.316Z,1.00
2023-04-22T12:37:28.304Z,1.20
2023-04-22T12:38:28.299Z,1.60
2023-04-22T12:39:28.284Z,1.30
2023-04-22T12:40:28.265Z,1.30
2023-04-22T12:41:28.284Z,1.30
2023-04-22T12:42:28.264Z,1.00
2023-04-22T12:43:28.267Z,1.30
2023-04-22T12:44:28.209Z,1.20
2023-04-22T12:45:28.227Z,1.20
2023-04-22T12:46:28.254Z,1.40
2023-04-22T12:47:28.239Z,1.30
2023-04-22T12:48:28.209Z,1.10
2023-04-22T12:49:28.176Z,0.90
2023-04-22T12:50:28.143Z,1.30
2023-04-22T12:51:28.170Z,1.60
2023-04-22T12:52:28.146Z,1.20
2023-04-22T12:53:28.173Z,1.10
2023-04-22T12:54:28.120Z,0.90
2023-04-22T12:55:28.130Z,1.40
2023-04-22T12:56:28.146Z,1.00
2023-04-22T12:57:28.102Z,1.00
2023-04-22T12:58:28.092Z,1.90
2023-04-22T12:59:28.065Z,1.30
2023-04-22T13:00:28.036Z,1.40
2023-04-22T13:01:28.086Z,1.30
2023-04-22T13:02:28.252Z,1.00
2023-04-22T13:03:28.155Z,2.80
2023-04-22T13:04:28.238Z,1.10
2023-04-22T13:05:28.010Z,1.00
2023-04-22T13:06:27.988Z,0.90
2023-04-22T13:07:27.997Z,0.90
2023-04-22T13:08:27.971Z,1.10
2023-04-22T13:09:27.956Z,0.70
2023-04-22T13:10:27.966Z,1.20
2023-04-22T13:11:27.929Z,0.80
2023-04-22T13:12:27.902Z,1.10
2023-04-22T13:13:27.899Z,1.20
2023-04-22T13:14:27.928Z,1.10
2023-04-22T13:15:27.895Z,0.90
2023-04-22T13:16:27.967Z,0.90
2023-04-22T13:17:27.874Z,1.10
2023-04-22T13:18:27.874Z,1.00
2023-04-22T13:19:27.830Z,0.90
2023-04-22T13:20:27.835Z,1.50